Time;durP1;ratioP1;P1;durP2;ratioP2;P2;SDS_P1;SDS_P2;PMS_P1;PMS_P2;Temp;Humidity;BMP_temperature;BMP_pressure;BME280_temperature;BME280_humidity;BME280_pressure;Samples;Min_cycle;Max_cycle;Signal;HPM_P1;HPM_P2
2021/07/18 00:00:18;;;;;;;;;8.25;6.00;;;;;24.37;51.98;101962.44;4996657;28;51154;-55
2021/07/18 00:02:44;;;;;;;;;6.75;6.00;;;;;24.36;52.19;101969.06;4997618;28;51213;-55
2021/07/18 00:05:09;;;;;;;;;6.75;5.75;;;;;24.35;52.12;101956.28;4996870;28;51071;-56
2021/07/18 00:07:35;;;;;;;;;4.25;4.25;;;;;24.34;52.13;101957.34;4994652;28;51366;-55
2021/07/18 00:10:00;;;;;;;;;8.00;6.00;;;;;24.34;52.04;101968.44;4997184;28;51088;-55
2021/07/18 00:12:26;;;;;;;;;5.00;5.00;;;;;24.32;52.45;101953.97;4996165;28;51308;-56
2021/07/18 00:14:51;;;;;;;;;7.25;6.00;;;;;24.33;52.10;101947.34;4995498;28;50991;-54
2021/07/18 00:17:17;;;;;;;;;5.00;5.00;;;;;24.32;52.06;101953.97;4997661;28;51249;-55
2021/07/18 00:19:42;;;;;;;;;8.25;4.25;;;;;24.32;52.03;101959.50;4997159;28;51112;-55
2021/07/18 00:22:08;;;;;;;;;6.50;6.50;;;;;24.31;52.29;101963.34;4996072;28;51068;-57
2021/07/18 00:24:34;;;;;;;;;6.00;5.50;;;;;24.29;52.43;101954.38;4996226;28;51016;-57
2021/07/18 00:26:59;;;;;;;;;6.25;6.25;;;;;24.28;52.62;101955.44;4997066;28;51461;-57
2021/07/18 00:29:25;;;;;;;;;4.50;3.25;;;;;24.28;52.06;101963.72;4996494;28;51014;-57
2021/07/18 00:31:51;;;;;;;;;8.25;5.25;;;;;24.27;52.07;101962.03;4995372;28;51050;-56
2021/07/18 00:34:16;;;;;;;;;3.00;3.00;;;;;24.26;52.52;101960.34;4995582;28;51356;-57
2021/07/18 00:36:41;;;;;;;;;4.25;4.25;;;;;24.26;52.33;101960.34;4995814;28;51098;-57
2021/07/18 00:39:07;;;;;;;;;9.00;5.50;;;;;24.26;51.96;101963.09;4979368;28;51176;-57
2021/07/18 00:41:32;;;;;;;;;5.25;5.25;;;;;24.25;52.54;101958.66;4997449;28;51170;-54
2021/07/18 00:43:58;;;;;;;;;6.25;4.75;;;;;24.24;52.26;101957.81;4996316;28;51223;-56
2021/07/18 00:46:23;;;;;;;;;5.00;5.00;;;;;24.23;52.60;101964.41;4996743;28;51816;-56
2021/07/18 00:48:48;;;;;;;;;5.25;5.25;;;;;24.23;52.75;101960.78;4994546;28;51087;-56
2021/07/18 00:51:14;;;;;;;;;6.25;4.25;;;;;24.22;52.59;101959.09;4997323;28;51190;-56
2021/07/18 00:53:40;;;;;;;;;5.50;5.50;;;;;24.22;52.15;101959.09;4995973;28;51360;-55
2021/07/18 00:56:05;;;;;;;;;6.50;6.00;;;;;24.21;52.39;101958.25;4996809;28;51035;-56
2021/07/18 00:58:31;;;;;;;;;5.25;4.50;;;;;24.19;52.41;101961.25;4996120;28;50991;-56
2021/07/18 01:00:58;;;;;;;;;7.25;6.25;;;;;24.19;52.35;101958.47;4993552;28;51166;-56
2021/07/18 01:03:25;;;;;;;;;4.75;4.75;;;;;24.19;52.46;101968.69;4996756;28;51200;-56
2021/07/18 01:05:52;;;;;;;;;7.00;5.00;;;;;24.17;52.29;101957.81;4994541;28;52105;-54
2021/07/18 01:08:17;;;;;;;;;8.25;6.00;;;;;24.17;52.41;101960.59;4996296;28;51510;-56
2021/07/18 01:10:42;;;;;;;;;6.50;4.50;;;;;24.17;52.65;101962.50;4995238;28;50984;-56
2021/07/18 01:13:08;;;;;;;;;6.75;6.50;;;;;24.16;52.29;101967.19;4996669;28;51057;-56
2021/07/18 01:15:34;;;;;;;;;4.50;4.50;;;;;24.15;52.85;101964.66;4994746;28;51688;-55
2021/07/18 01:17:59;;;;;;;;;8.00;7.00;;;;;24.14;52.82;101969.34;4994832;28;51144;-55
2021/07/18 01:20:24;;;;;;;;;6.50;6.00;;;;;24.13;52.56;101970.41;4996938;28;51200;-56
2021/07/18 01:22:50;;;;;;;;;6.75;6.75;;;;;24.13;52.56;101973.19;4997143;28;51067;-57
2021/07/18 01:25:16;;;;;;;;;11.25;6.00;;;;;24.12;52.56;101965.94;4994875;28;51872;-57
2021/07/18 01:27:43;;;;;;;;;8.50;7.25;;;;;24.12;52.84;101965.94;4994989;28;51011;-56
2021/07/18 01:30:10;;;;;;;;;11.25;8.50;;;;;24.11;52.59;101980.88;4996107;28;51162;-56
2021/07/18 01:32:36;;;;;;;;;7.00;7.00;;;;;24.10;52.77;101970.03;4996859;28;51294;-57
2021/07/18 01:35:03;;;;;;;;;6.50;5.50;;;;;24.10;52.28;101970.03;4993255;28;51114;-56
2021/07/18 01:37:28;;;;;;;;;8.25;6.00;;;;;24.08;52.47;101970.25;4996604;28;51114;-57
2021/07/18 01:39:54;;;;;;;;;11.25;6.00;;;;;24.08;52.78;101972.16;4995459;28;51301;-56
2021/07/18 01:42:20;;;;;;;;;5.00;5.00;;;;;24.07;52.49;101967.66;4995691;28;51041;-55
2021/07/18 01:44:46;;;;;;;;;7.50;5.75;;;;;24.07;52.99;101968.53;4995193;28;51154;-55
2021/07/18 01:47:12;;;;;;;;;5.50;5.50;;;;;24.06;52.62;101966.81;4996724;28;51017;-55
2021/07/18 01:49:38;;;;;;;;;5.25;5.25;;;;;24.06;52.16;101965.97;4996058;28;50994;-57
2021/07/18 01:52:04;;;;;;;;;7.75;7.00;;;;;24.04;52.35;101952.34;4994640;28;51377;-56
2021/07/18 01:54:30;;;;;;;;;6.00;6.00;;;;;24.03;52.83;101958.97;4995150;28;51550;-55
2021/07/18 01:56:55;;;;;;;;;6.00;5.75;;;;;24.03;52.83;101966.41;4994554;28;51052;-55
2021/07/18 01:59:20;;;;;;;;;6.00;5.25;;;;;24.03;52.72;101960.88;4996442;28;51085;-55
2021/07/18 02:01:46;;;;;;;;;6.00;5.00;;;;;24.02;52.84;101957.25;4996309;28;51294;-55
2021/07/18 02:04:13;;;;;;;;;6.75;6.75;;;;;24.02;52.45;101961.97;4984028;28;51940;-54
2021/07/18 02:06:39;;;;;;;;;5.75;5.50;;;;;24.02;52.46;101953.66;4994274;28;51389;-55
2021/07/18 02:09:05;;;;;;;;;7.25;7.25;;;;;24.02;52.41;101957.25;4994157;28;51204;-56
2021/07/18 02:11:30;;;;;;;;;9.25;7.00;;;;;24.01;53.00;101963.03;4996410;28;51394;-55
2021/07/18 02:13:58;;;;;;;;;5.00;5.00;;;;;24.01;52.51;101958.34;4994679;28;51170;-56
2021/07/18 02:16:24;;;;;;;;;8.00;6.00;;;;;24.01;52.68;101958.34;4992357;28;51095;-55
2021/07/18 02:18:50;;;;;;;;;6.75;6.75;;;;;24.01;52.53;101958.34;4994406;28;51270;-55
2021/07/18 02:21:18;;;;;;;;;4.00;4.00;;;;;23.99;52.71;101957.72;4994805;28;51333;-55
2021/07/18 02:23:44;;;;;;;;;7.50;7.25;;;;;23.98;52.59;101961.56;4992556;28;51213;-53
2021/07/18 02:26:09;;;;;;;;;7.00;5.00;;;;;23.98;52.76;101952.41;4995447;28;51041;-55
2021/07/18 02:28:35;;;;;;;;;8.50;6.25;;;;;23.98;52.77;101958.78;4995800;28;51127;-56
2021/07/18 02:31:05;;;;;;;;;7.00;4.75;;;;;23.97;52.23;101947.91;4995819;28;51085;-56
2021/07/18 02:33:31;;;;;;;;;6.25;4.25;;;;;23.97;52.39;101953.44;4994114;28;51865;-56
2021/07/18 02:35:58;;;;;;;;;6.25;5.25;;;;;23.95;52.41;101953.66;4995291;28;51185;-56
2021/07/18 02:38:24;;;;;;;;;5.75;5.00;;;;;23.95;52.81;101947.28;4994740;28;51156;-56
2021/07/18 02:40:50;;;;;;;;;7.25;7.25;;;;;23.95;52.69;101950.06;4996278;28;51023;-56
2021/07/18 02:43:15;;;;;;;;;7.25;6.75;;;;;23.93;52.83;101950.28;4994370;28;51584;-56
2021/07/18 02:45:40;;;;;;;;;7.50;5.75;;;;;23.93;52.36;101953.03;4995749;28;51077;-56
2021/07/18 02:48:06;;;;;;;;;6.00;6.00;;;;;23.92;52.68;101948.56;4994424;28;51130;-55
2021/07/18 02:50:31;;;;;;;;;6.25;6.00;;;;;23.91;52.49;101952.41;4993855;28;51283;-56
2021/07/18 02:52:57;;;;;;;;;5.50;5.25;;;;;23.91;52.39;101952.41;4995256;28;50976;-55
2021/07/18 02:55:22;;;;;;;;;6.00;5.00;;;;;23.90;52.58;101951.56;4994405;28;51107;-55
2021/07/18 02:57:48;;;;;;;;;7.00;7.00;;;;;23.90;52.22;101945.19;4995538;28;51267;-55
2021/07/18 03:00:16;;;;;;;;;7.00;5.50;;;;;23.89;52.59;101944.34;4994725;28;51150;-56
2021/07/18 03:02:43;;;;;;;;;7.00;7.00;;;;;23.88;52.37;101945.41;4994305;28;51115;-56
2021/07/18 03:05:12;;;;;;;;;7.00;6.75;;;;;23.88;52.52;101944.56;4995081;28;51322;-54
2021/07/18 03:07:39;;;;;;;;;7.25;5.75;;;;;23.87;52.33;101938.19;4995741;28;51040;-55
2021/07/18 03:10:06;;;;;;;;;6.50;5.00;;;;;23.87;52.37;101940.94;4993742;28;50949;-56
2021/07/18 03:12:32;;;;;;;;;6.25;6.25;;;;;23.85;52.34;101937.53;4994769;28;51066;-56
2021/07/18 03:14:59;;;;;;;;;5.75;5.00;;;;;23.85;52.77;101940.28;4995297;28;51049;-55
2021/07/18 03:17:24;;;;;;;;;6.25;4.75;;;;;23.85;52.55;101947.75;4994509;28;51154;-56
2021/07/18 03:19:51;;;;;;;;;6.75;4.75;;;;;23.84;52.35;101940.50;4994773;28;51043;-56
2021/07/18 03:22:16;;;;;;;;;8.00;8.00;;;;;23.84;52.60;101943.28;4994311;28;51367;-55
2021/07/18 03:24:42;;;;;;;;;10.00;6.75;;;;;23.83;52.41;101947.97;4995287;28;50946;-56
2021/07/18 03:27:07;;;;;;;;;9.75;6.25;;;;;23.83;52.58;101949.88;4993473;28;51086;-55
2021/07/18 03:29:32;;;;;;;;;7.25;5.75;;;;;23.81;52.35;101940.97;4994526;28;51194;-56
2021/07/18 03:31:58;;;;;;;;;7.50;5.25;;;;;23.81;52.80;101946.50;4994084;28;52613;-55
2021/07/18 03:34:23;;;;;;;;;7.00;6.00;;;;;23.80;52.48;101942.03;4994927;28;51063;-57
2021/07/18 03:36:48;;;;;;;;;5.25;5.25;;;;;23.80;52.51;101939.25;4995380;28;51193;-56
2021/07/18 03:39:14;;;;;;;;;5.50;5.25;;;;;23.80;52.70;101944.81;4995075;28;51287;-56
2021/07/18 03:41:39;;;;;;;;;6.25;6.25;;;;;23.79;52.56;101943.09;4994425;28;55239;-55
2021/07/18 03:44:05;;;;;;;;;7.50;3.75;;;;;23.79;52.69;101940.34;4995276;28;51046;-56
2021/07/18 03:46:30;;;;;;;;;7.25;5.25;;;;;23.78;52.86;101947.78;4993395;28;51053;-56
2021/07/18 03:48:55;;;;;;;;;7.00;4.50;;;;;23.78;52.41;101949.72;4994728;28;51231;-55
2021/07/18 03:51:20;;;;;;;;;11.25;6.25;;;;;23.77;52.61;101946.09;4996527;28;51134;-56
2021/07/18 03:53:46;;;;;;;;;6.50;6.00;;;;;23.76;52.76;101935.22;4998393;28;51076;-56
2021/07/18 03:56:11;;;;;;;;;6.00;5.00;;;;;23.76;52.27;101947.16;4995464;28;51146;-56
2021/07/18 03:58:37;;;;;;;;;6.25;5.00;;;;;23.75;52.77;101947.34;4998645;28;51219;-57
2021/07/18 04:01:09;;;;;;;;;7.00;7.00;;;;;23.75;52.42;101950.13;4998138;28;51074;-56
2021/07/18 04:03:34;;;;;;;;;6.00;5.00;;;;;23.73;52.52;101950.34;4997130;28;51403;-56
2021/07/18 04:06:01;;;;;;;;;7.75;6.75;;;;;23.72;52.19;101945.88;4997339;28;51032;-57
2021/07/18 04:08:27;;;;;;;;;9.50;6.00;;;;;23.73;52.64;101943.97;4998676;28;51091;-56
2021/07/18 04:10:52;;;;;;;;;10.00;7.00;;;;;23.72;52.45;101945.03;4996914;28;52006;-56
2021/07/18 04:13:17;;;;;;;;;4.75;4.75;;;;;23.71;52.58;101940.56;4996659;28;51763;-57
2021/07/18 04:15:42;;;;;;;;;6.50;5.75;;;;;23.70;52.55;101945.25;4996639;28;51365;-56
2021/07/18 04:18:09;;;;;;;;;6.75;6.75;;;;;23.69;52.33;101949.09;4997438;28;51014;-56
2021/07/18 04:20:35;;;;;;;;;7.75;6.00;;;;;23.69;52.20;101953.78;4995708;28;52376;-55
2021/07/18 04:23:00;;;;;;;;;7.25;5.75;;;;;23.69;52.53;101951.00;4994514;28;51640;-56
2021/07/18 04:25:26;;;;;;;;;9.00;8.00;;;;;23.67;52.63;101953.16;4997900;28;51162;-55
2021/07/18 04:27:51;;;;;;;;;6.00;5.00;;;;;23.66;52.31;101952.31;4997912;28;51353;-56
2021/07/18 04:30:17;;;;;;;;;8.25;7.00;;;;;23.67;52.28;101953.16;4996481;28;52004;-54
2021/07/18 04:32:42;;;;;;;;;6.75;5.00;;;;;23.66;52.40;101960.59;4995430;28;51028;-56
2021/07/18 04:35:08;;;;;;;;;5.75;5.00;;;;;23.64;52.47;101954.41;4997525;28;51041;-57
2021/07/18 04:37:36;;;;;;;;;8.50;5.50;;;;;23.65;52.70;101963.56;4997678;28;51238;-54
2021/07/18 04:40:03;;;;;;;;;6.75;5.25;;;;;23.65;52.25;101958.88;4996715;28;51125;-56
2021/07/18 04:42:28;;;;;;;;;7.00;6.25;;;;;23.63;52.45;101958.25;4996280;28;51201;-55
2021/07/18 04:44:54;;;;;;;;;8.25;6.00;;;;;23.63;52.72;101962.94;4996623;28;51057;-54
2021/07/18 04:47:19;;;;;;;;;7.00;6.00;;;;;23.62;52.25;101959.31;4996695;28;51183;-56
2021/07/18 04:49:45;;;;;;;;;5.00;5.00;;;;;23.60;52.17;101956.78;4996620;28;55204;-56
2021/07/18 04:52:10;;;;;;;;;6.25;6.00;;;;;23.59;52.33;101957.84;4995008;28;51368;-55
2021/07/18 04:54:35;;;;;;;;;7.75;6.00;;;;;23.60;52.16;101961.44;4996994;28;51026;-56
2021/07/18 04:57:01;;;;;;;;;5.00;5.00;;;;;23.58;52.56;101963.56;4997177;28;51224;-56
2021/07/18 04:59:26;;;;;;;;;5.25;4.75;;;;;23.59;52.64;101962.53;4993092;28;51149;-56
2021/07/18 05:01:53;;;;;;;;;5.75;5.75;;;;;23.58;52.36;101974.63;4994903;28;51135;-55
2021/07/18 05:04:19;;;;;;;;;4.25;4.25;;;;;23.58;52.83;101980.16;4996179;28;51060;-56
2021/07/18 05:06:44;;;;;;;;;6.25;5.75;;;;;23.56;52.73;101972.06;4995203;28;51334;-55
2021/07/18 05:09:09;;;;;;;;;5.25;5.00;;;;;23.55;52.76;101973.16;4996874;28;51038;-56
2021/07/18 05:11:35;;;;;;;;;8.00;5.00;;;;;23.55;52.39;101986.09;4997363;28;51040;-56
2021/07/18 05:14:00;;;;;;;;;5.75;5.75;;;;;23.56;52.63;101985.06;4995958;28;51436;-56
2021/07/18 05:16:26;;;;;;;;;5.50;5.50;;;;;23.55;52.01;101992.50;4997003;28;51260;-56
2021/07/18 05:18:51;;;;;;;;;5.25;5.25;;;;;23.54;52.18;101995.47;4995628;28;51944;-56
2021/07/18 05:21:16;;;;;;;;;2.50;2.50;;;;;23.54;52.26;101989.94;4993536;28;52669;-56
2021/07/18 05:23:42;;;;;;;;;5.00;5.00;;;;;23.53;52.46;101989.06;4996394;28;51598;-55
2021/07/18 05:26:07;;;;;;;;;7.25;6.25;;;;;23.52;52.41;101995.69;4995687;28;51243;-56
2021/07/18 05:28:32;;;;;;;;;5.00;5.00;;;;;23.52;52.27;101987.38;4996176;28;51021;-56
2021/07/18 05:30:58;;;;;;;;;7.75;5.00;;;;;23.51;52.23;101985.69;4997309;28;51016;-56
2021/07/18 05:33:23;;;;;;;;;6.75;5.25;;;;;23.51;52.05;101985.69;4995013;28;51356;-56
2021/07/18 05:35:48;;;;;;;;;7.75;5.50;;;;;23.51;52.01;101988.44;4997269;28;50983;-56
2021/07/18 05:38:14;;;;;;;;;8.50;5.00;;;;;23.51;52.45;101985.69;4996754;28;52261;-56
2021/07/18 05:40:39;;;;;;;;;4.50;4.50;;;;;23.50;52.35;101983.13;4993810;28;51153;-55
2021/07/18 05:43:05;;;;;;;;;6.00;4.00;;;;;23.50;52.45;101991.44;4995616;28;51080;-56
2021/07/18 05:45:30;;;;;;;;;6.00;6.00;;;;;23.50;52.47;101989.53;4996795;28;51369;-56
2021/07/18 05:47:56;;;;;;;;;9.00;6.50;;;;;23.49;52.25;101989.75;4996644;28;51769;-55
2021/07/18 05:50:21;;;;;;;;;5.75;5.75;;;;;23.48;52.29;101986.13;4995578;28;51122;-56
2021/07/18 05:52:47;;;;;;;;;6.00;4.50;;;;;23.48;52.13;101986.13;4979241;28;51047;-55
2021/07/18 05:55:12;;;;;;;;;5.00;5.00;;;;;23.48;52.49;101991.66;4997071;28;51310;-56
2021/07/18 05:57:37;;;;;;;;;6.75;4.50;;;;;23.48;52.10;101988.91;4995554;28;51029;-56
2021/07/18 06:00:06;;;;;;;;;4.75;4.25;;;;;23.47;52.60;101987.19;4995495;28;51261;-59
2021/07/18 06:02:31;;;;;;;;;6.00;6.00;;;;;23.47;52.46;101992.72;4996734;28;51047;-56
2021/07/18 06:04:56;;;;;;;;;5.00;5.00;;;;;23.48;52.55;101993.56;4996168;28;50987;-57
2021/07/18 06:07:22;;;;;;;;;4.25;3.75;;;;;23.48;52.25;102001.88;4996098;28;56385;-56
2021/07/18 06:09:47;;;;;;;;;6.00;4.00;;;;;23.49;52.41;101995.28;4994182;28;53378;-56
2021/07/18 06:12:12;;;;;;;;;7.50;6.25;;;;;23.48;52.30;101988.91;4995308;28;51071;-56
2021/07/18 06:14:39;;;;;;;;;4.00;4.00;;;;;23.48;52.18;101993.56;4995741;28;51063;-55
2021/07/18 06:17:05;;;;;;;;;4.75;4.75;;;;;23.48;52.18;101983.38;4995810;28;51966;-56
2021/07/18 06:19:30;;;;;;;;;6.00;6.00;;;;;23.49;52.21;101986.97;4990214;28;51095;-57
2021/07/18 06:21:56;;;;;;;;;5.00;5.00;;;;;23.49;52.17;101992.50;4994984;28;51124;-56
2021/07/18 06:24:21;;;;;;;;;4.50;4.50;;;;;23.49;52.60;101990.59;4996274;28;51356;-56
2021/07/18 06:26:46;;;;;;;;;5.00;5.00;;;;;23.49;52.33;101989.75;4995592;28;51015;-56
2021/07/18 06:29:12;;;;;;;;;5.00;5.00;;;;;23.49;52.06;101998.88;4994988;28;51253;-56
2021/07/18 06:31:37;;;;;;;;;5.25;3.50;;;;;23.49;52.38;101998.88;4996187;28;51103;-55
2021/07/18 06:34:02;;;;;;;;;6.00;4.00;;;;;23.48;52.30;101997.19;4995861;28;51064;-56
2021/07/18 06:36:28;;;;;;;;;5.50;5.50;;;;;23.50;52.31;102002.50;4995850;28;50970;-56
2021/07/18 06:38:55;;;;;;;;;8.25;6.00;;;;;23.50;52.58;102002.50;4994988;28;51163;-56
2021/07/18 06:41:20;;;;;;;;;7.00;5.75;;;;;23.51;52.42;101998.66;4988842;28;51213;-59
2021/07/18 06:43:45;;;;;;;;;5.50;5.50;;;;;23.53;54.56;102005.69;4994014;28;51024;-58
2021/07/18 06:46:11;;;;;;;;;5.00;4.00;;;;;23.56;53.51;101996.97;4994599;28;51222;-59
2021/07/18 06:48:36;;;;;;;;;7.00;3.75;;;;;23.56;54.62;102005.28;4995356;28;51263;-59
2021/07/18 06:51:01;;;;;;;;;5.50;4.25;;;;;23.60;54.83;102008.47;4995928;28;51168;-59
2021/07/18 06:53:27;;;;;;;;;5.75;5.25;;;;;23.61;54.61;102008.25;4995587;28;50950;-59
2021/07/18 06:55:52;;;;;;;;;6.00;4.25;;;;;23.64;55.53;102012.50;4992756;28;51256;-59
2021/07/18 06:58:18;;;;;;;;;5.00;5.00;;;;;23.65;55.35;102008.66;4995484;28;51178;-58
2021/07/18 07:00:43;;;;;;;;;6.75;5.75;;;;;23.67;54.82;102000.19;4994905;28;51071;-59
2021/07/18 07:03:08;;;;;;;;;7.50;5.75;;;;;23.68;54.44;101996.34;4993789;28;51240;-58
2021/07/18 07:05:35;;;;;;;;;6.25;4.25;;;;;23.70;54.69;101996.97;4992466;28;51200;-58
2021/07/18 07:08:00;;;;;;;;;6.75;5.75;;;;;23.70;54.47;101997.81;4994489;28;51548;-58
2021/07/18 07:10:25;;;;;;;;;6.75;4.00;;;;;23.71;54.17;101995.91;4992965;28;51298;-58
2021/07/18 07:12:51;;;;;;;;;7.00;6.25;;;;;23.71;53.92;101999.50;4993547;28;51004;-57
2021/07/18 07:15:16;;;;;;;;;4.50;4.00;;;;;23.72;53.88;101992.91;4995298;28;51112;-57
2021/07/18 07:17:41;;;;;;;;;4.00;4.00;;;;;23.72;53.64;101992.91;4995603;28;51219;-58
2021/07/18 07:20:09;;;;;;;;;8.00;4.00;;;;;23.75;53.88;101999.91;4995239;28;51514;-58
2021/07/18 07:22:35;;;;;;;;;6.75;5.75;;;;;23.77;53.75;102003.34;4995913;28;51006;-57
2021/07/18 07:25:06;;;;;;;;;5.75;4.75;;;;;23.77;54.11;102006.13;4995487;28;51051;-58
2021/07/18 07:27:31;;;;;;;;;7.25;3.75;;;;;23.77;54.39;101993.13;4998420;28;51113;-57
2021/07/18 07:29:57;;;;;;;;;6.50;6.00;;;;;23.80;54.33;102005.66;4994805;28;51290;-56
2021/07/18 07:32:22;;;;;;;;;4.00;3.75;;;;;23.81;54.52;101999.06;4998879;28;51349;-56
2021/07/18 07:34:48;;;;;;;;;6.50;5.00;;;;;23.83;55.17;101994.16;4997775;28;51895;-56
2021/07/18 07:37:13;;;;;;;;;4.00;3.50;;;;;23.85;55.00;101995.63;4997285;28;51084;-56
2021/07/18 07:39:40;;;;;;;;;5.50;5.25;;;;;23.88;54.99;101997.13;4995793;28;51186;-61
2021/07/18 07:42:06;;;;;;;;;5.00;4.00;;;;;23.90;54.75;101992.22;4997620;28;51374;-57
2021/07/18 07:44:31;;;;;;;;;6.00;5.25;;;;;23.94;54.32;102006.47;4995345;28;51967;-57
2021/07/18 07:46:57;;;;;;;;;8.25;5.25;;;;;23.96;53.93;101999.63;4994581;28;51079;-57
2021/07/18 07:49:22;;;;;;;;;6.00;4.50;;;;;23.99;54.47;101992.84;4994763;28;51746;-56
2021/07/18 07:51:47;;;;;;;;;6.50;3.75;;;;;24.02;54.36;102000.69;4997445;28;51242;-55
2021/07/18 07:54:13;;;;;;;;;1.75;1.75;;;;;24.04;53.70;101991.09;4996808;28;51046;-53
2021/07/18 07:56:38;;;;;;;;;9.00;5.00;;;;;24.06;53.60;101999.19;4995312;28;51157;-56
2021/07/18 07:59:03;;;;;;;;;5.00;5.00;;;;;24.09;53.77;101998.78;4996916;28;51308;-57
2021/07/18 08:01:28;;;;;;;;;6.00;4.00;;;;;24.10;53.99;102001.31;4993029;28;51116;-58
2021/07/18 08:03:54;;;;;;;;;8.00;4.00;;;;;24.12;53.68;102003.84;4995836;28;51050;-57
2021/07/18 08:06:19;;;;;;;;;4.00;4.00;;;;;24.12;53.50;101999.16;4997609;28;54854;-57
2021/07/18 08:08:44;;;;;;;;;3.75;3.75;;;;;24.13;53.88;101991.72;4997213;28;51438;-57
2021/07/18 08:11:10;;;;;;;;;5.00;5.00;;;;;24.13;53.77;101997.25;4995150;28;51298;-56
2021/07/18 08:13:36;;;;;;;;;6.00;4.00;;;;;24.14;53.81;101988.72;4992619;28;51210;-56
2021/07/18 08:16:02;;;;;;;;;4.25;4.00;;;;;24.15;53.81;101986.81;4996496;28;51248;-57
2021/07/18 08:18:27;;;;;;;;;2.00;1.25;;;;;24.15;53.65;101987.66;4977984;28;51289;-57
2021/07/18 08:20:53;;;;;;;;;3.00;2.50;;;;;24.16;53.57;101985.72;4995183;28;50969;-58
2021/07/18 08:23:18;;;;;;;;;5.00;3.25;;;;;24.16;53.65;101988.50;4997270;28;52016;-59
2021/07/18 08:25:43;;;;;;;;;2.25;2.00;;;;;24.16;53.60;101986.56;4996801;28;51160;-56
2021/07/18 08:28:09;;;;;;;;;4.00;4.00;;;;;24.18;53.47;101980.84;4997086;28;51211;-56
2021/07/18 08:30:36;;;;;;;;;4.50;3.00;;;;;24.19;53.73;101977.00;4996719;28;51414;-57
2021/07/18 08:33:01;;;;;;;;;3.75;3.75;;;;;24.21;53.26;101968.47;4995264;28;51997;-56
2021/07/18 08:35:27;;;;;;;;;3.75;3.00;;;;;24.22;53.90;101975.72;4997171;28;51075;-57
2021/07/18 08:37:52;;;;;;;;;3.00;3.00;;;;;24.22;53.55;101971.03;4995714;28;51163;-56
2021/07/18 08:40:17;;;;;;;;;4.00;3.00;;;;;24.25;53.75;101975.25;4996701;28;51081;-58
2021/07/18 08:42:43;;;;;;;;;3.00;3.00;;;;;24.27;53.07;101978.66;4978165;28;52524;-57
2021/07/18 08:45:10;;;;;;;;;6.25;2.50;;;;;24.28;53.22;101972.03;4994973;28;51420;-59
2021/07/18 08:47:35;;;;;;;;;2.50;2.00;;;;;24.29;53.39;101962.69;4989869;28;51418;-57
2021/07/18 08:50:02;;;;;;;;;4.50;3.50;;;;;24.30;53.01;101961.63;4991459;28;51140;-57
2021/07/18 08:52:28;;;;;;;;;5.25;4.00;;;;;24.30;53.15;101959.69;4993876;28;51873;-57
2021/07/18 08:54:54;;;;;;;;;5.50;4.00;;;;;24.32;52.94;101962.28;4998743;28;51159;-56
2021/07/18 08:57:24;;;;;;;;;6.50;3.75;;;;;24.32;52.94;101954.81;4994921;28;51078;-56
2021/07/18 08:59:51;;;;;;;;;1.75;1.75;;;;;24.34;52.64;101957.34;4995592;28;51625;-55
2021/07/18 09:02:17;;;;;;;;;3.00;2.75;;;;;24.33;52.43;101953.75;4995997;28;51110;-56
2021/07/18 09:04:42;;;;;;;;;4.00;3.00;;;;;24.33;52.65;101959.28;4995450;28;51200;-56
2021/07/18 09:07:10;;;;;;;;;4.75;4.50;;;;;24.34;52.62;101962.91;4997183;28;51024;-58
2021/07/18 09:09:36;;;;;;;;;2.00;2.00;;;;;24.34;52.97;101949.03;4995544;28;51165;-57
2021/07/18 09:12:05;;;;;;;;;6.00;3.00;;;;;24.36;52.62;101960.75;4996745;28;51236;-56
2021/07/18 09:14:32;;;;;;;;;3.00;3.00;;;;;24.35;52.92;101961.81;4993635;28;51974;-57
2021/07/18 09:16:57;;;;;;;;;4.25;3.50;;;;;24.36;53.98;101960.75;4993906;28;51032;-58
2021/07/18 09:19:29;;;;;;;;;6.00;4.50;;;;;24.36;54.52;101956.06;4993871;28;51169;-57
2021/07/18 09:21:57;;;;;;;;;7.00;3.75;;;;;24.37;54.43;101952.22;4991630;28;51125;-56
2021/07/18 09:24:25;;;;;;;;;3.25;3.25;;;;;24.38;54.15;101942.84;4975713;28;51356;-57
2021/07/18 09:27:27;;;;;;;;;4.00;2.25;;;;;24.38;54.00;101951.13;5005309;28;51267;-57
2021/07/18 09:29:56;;;;;;;;;7.00;3.75;;;;;24.41;53.78;101944.31;4995503;28;51173;-57
2021/07/18 09:32:27;;;;;;;;;6.00;4.00;;;;;24.41;53.39;101950.72;4996290;28;52043;-56
2021/07/18 09:34:56;;;;;;;;;3.25;3.25;;;;;24.42;53.31;101951.56;4995973;28;51213;-56
2021/07/18 09:37:25;;;;;;;;;4.25;4.00;;;;;24.42;52.65;101954.34;4995849;28;51011;-56
2021/07/18 09:39:59;;;;;;;;;2.25;2.00;;;;;24.41;53.11;101945.19;4995300;28;51101;-56
2021/07/18 09:42:37;;;;;;;;;2.00;2.00;;;;;24.41;53.02;101942.41;4995698;28;51736;-56
2021/07/18 09:45:06;;;;;;;;;3.75;2.50;;;;;24.41;52.60;101941.56;4994621;28;51028;-56
2021/07/18 09:47:32;;;;;;;;;3.00;3.00;;;;;24.42;52.25;101944.09;4995818;28;51115;-56
2021/07/18 09:49:57;;;;;;;;;4.00;3.00;;;;;24.42;52.34;101949.66;4995889;28;51029;-55
2021/07/18 09:52:27;;;;;;;;;3.50;3.00;;;;;24.42;52.10;101946.03;4996243;28;51850;-56
2021/07/18 09:54:58;;;;;;;;;3.50;2.00;;;;;24.43;52.12;101944.94;4996060;28;51452;-57
2021/07/18 09:57:41;;;;;;;;;4.50;3.00;;;;;24.43;52.09;101944.94;4995607;28;51131;-55
2021/07/18 10:00:10;;;;;;;;;2.00;2.00;;;;;24.43;51.87;101933.88;4995554;28;51277;-57
2021/07/18 10:02:39;;;;;;;;;4.75;3.25;;;;;24.42;51.94;101940.47;4995244;28;52139;-57
2021/07/18 10:05:05;;;;;;;;;4.00;2.50;;;;;24.42;51.94;101930.25;4976068;28;51217;-57
2021/07/18 10:07:33;;;;;;;;;3.00;1.00;;;;;24.42;51.79;101930.25;4983652;28;51154;-57
2021/07/18 10:09:59;;;;;;;;;5.00;2.25;;;;;24.43;51.76;101948.56;4996307;28;51106;-57
2021/07/18 10:12:25;;;;;;;;;3.00;3.00;;;;;24.45;51.89;101942.81;4994679;28;52797;-56
2021/07/18 10:14:52;;;;;;;;;3.75;3.25;;;;;24.45;51.92;101938.09;4994777;28;51215;-57
2021/07/18 10:17:18;;;;;;;;;2.00;2.00;;;;;24.45;51.87;101938.09;4996180;28;51007;-56
2021/07/18 10:19:44;;;;;;;;;3.00;2.75;;;;;24.46;51.78;101933.41;4995661;28;50981;-53
2021/07/18 10:22:10;;;;;;;;;5.50;2.75;;;;;24.47;51.91;101937.88;4995744;28;50974;-58
2021/07/18 10:24:37;;;;;;;;;2.00;2.00;;;;;24.47;51.62;101930.41;4995757;28;51452;-56
2021/07/18 10:27:04;;;;;;;;;4.00;2.00;;;;;24.48;51.66;101937.66;4995672;28;51162;-57
2021/07/18 10:29:34;;;;;;;;;5.50;3.00;;;;;24.48;51.63;101932.13;4995774;28;51082;-57
2021/07/18 10:32:07;;;;;;;;;1.75;1.75;;;;;24.50;51.43;101926.38;4995305;28;51273;-57
2021/07/18 10:34:35;;;;;;;;;3.00;3.00;;;;;24.50;51.48;101928.31;4994271;28;51304;-57
2021/07/18 10:37:02;;;;;;;;;3.75;2.00;;;;;24.50;51.82;101931.91;4995649;28;51190;-57
2021/07/18 10:39:33;;;;;;;;;3.00;3.00;;;;;24.51;51.69;101918.91;4995119;28;51222;-57
2021/07/18 10:42:00;;;;;;;;;3.00;3.00;;;;;24.51;51.80;101925.31;4995198;28;50984;-56
2021/07/18 10:44:38;;;;;;;;;4.50;3.00;;;;;24.53;51.49;101916.75;4994606;28;50980;-57
2021/07/18 10:47:03;;;;;;;;;2.50;2.50;;;;;24.53;51.66;101914.00;4995268;28;51103;-57
2021/07/18 10:49:47;;;;;;;;;2.50;2.00;;;;;24.54;51.37;101924.84;4993674;28;51495;-57
2021/07/18 10:52:13;;;;;;;;;3.00;3.00;;;;;24.54;51.60;101919.31;4994994;28;52072;-58
2021/07/18 10:54:44;;;;;;;;;2.00;2.00;;;;;24.55;51.62;101915.47;4994901;28;51250;-57
2021/07/18 10:57:48;;;;;;;;;2.50;2.50;;;;;24.55;51.66;101909.91;4994933;28;51212;-55
2021/07/18 11:00:27;;;;;;;;;2.00;2.00;;;;;24.56;51.91;101899.69;4988670;28;51063;-57
2021/07/18 11:03:11;;;;;;;;;3.50;3.50;;;;;24.56;51.88;101908.84;4997569;28;52742;-58
2021/07/18 11:05:42;;;;;;;;;4.25;3.00;;;;;24.57;52.10;101896.69;4996797;28;51086;-58
2021/07/18 11:08:07;;;;;;;;;4.75;3.00;;;;;24.58;52.31;101898.38;4990180;28;50933;-57
2021/07/18 11:10:50;;;;;;;;;4.25;3.25;;;;;24.58;52.39;101903.91;4991545;28;50982;-60
2021/07/18 11:13:15;;;;;;;;;5.25;4.00;;;;;24.60;52.48;101904.56;4995736;28;51838;-55
2021/07/18 11:15:42;;;;;;;;;4.00;3.50;;;;;24.62;52.62;101893.25;4977854;28;51151;-56
2021/07/18 11:18:14;;;;;;;;;6.50;6.25;;;;;24.65;52.60;101895.56;4996800;28;51130;-54
2021/07/18 11:20:48;;;;;;;;;4.00;4.00;;;;;24.66;52.68;101894.50;4992638;28;51224;-54